Aérodrome :
LOGIN :

S'inscrire | Disclaimer

   EN    FR    IT 

 










Légende :    VFR   VFR Marginal   IFR   IFR Intensif   IFR Très Intensif
Visi : 
Plafond : 
>= 8 km
>= 3000ft
5 à 8 km
1000 à 3000 ft
1500m à 5 km
500 à 1000 ft
800 à 1500m
200 à 500 ft
< 800m
< 200 ft
Symboles :   Orages  Brouillard  Fortes neiges  Fortes précipitations  Vent > 20 kt
SIGMETs :   Divers  Orages  Givrage  Turbulence  Onde Orograph.  Cendres Volcan.







- Altitude de l'aérodrome : 364 ft
- Voir les cartes d'approche


LFAQ - Albert Bray

DERNIER METAR :
  • 191200Z AUTO 26010KT 9999 OVC018 19/15 Q1025 NOSIG

METARs EXPIRÉS :
  • 191130Z AUTO 28008KT 250V310 9999 OVC018 20/16 Q1025 NOSIG
  • 191100Z AUTO 25008KT 9999 FEW014 OVC021 19/16 Q1025 NOSIG
  • 191030Z AUTO 27008KT 230V300 9999 OVC016 19/16 Q1025 NOSIG
  • 191000Z AUTO 26009KT 9999 BKN013 OVC019 19/16 Q1025 TEMPO 3000 -DZ BECMG OVC017
  • 190930Z AUTO 26007KT 9999 BKN014 OVC020 18/15 Q1025 TEMPO 3000 -DZ BECMG OVC017

TAF TAF LFAQ
Valide du 19 à 12h jusqu'au 19 à 21h UTC


191100Z 1912/1921 28008KT 9999 BKN013 OVC020
BECMG 1912/1914 OVC020
Pas de NOTAMs connus pour ce terrain.



MET'MAP, la Météo Aéronautique d'un coup d'oeil ! - Copyright ORBIFLY Décembre 2007 - Disclaimer

ORBIFLY MET'MAP TEAM :

Programmation & Développement : Alexandra Zaïnal
Conception & Développement : Baudouin d'Aumeries
Co-Programmation & Développement : Marc-Olivier Méhu
Soutien technique & logistique : Manuel Goepfert

Contact : metmap@orbifly.com




SOURCES & CREDITS :

   NOAA